Decoded Metar for LKMT (OSTRAVA in CZECH REPUBLIC) (IATA:OSR) | Meteo·Mobile Aviation Weather
aviador You're here:

LKMT Decoded Metar

OSTRAVA in CZECH REPUBLIC
Report Time2018-11-20 17:00:00
UTC Time2018-11-20 17:31:15
Flight Rules ifr IFR
Wind030° at 08 kt
W.Decomp.*RWY 04: 7.8 kt HW 1.9 kt LCW
W.Rank030° ranks 8
Current wind is above 030° avg. (6.3)
Visibility3000 m
Phenomena:Mist
Clouds:Overcast 007 Hf
Expected CloudBase > 400 ft AGL from Temp-Dew spread
Ceiling700 ft
Temp00°C (ISA -13)
Dew Point-1°C (93% RH)
AAT-5.0°C
QNH1015 hPa
Density Alt-774 ft
Elevation840 ft
Report Wrong Elevation
Raw Report
LKMT 201700Z 03008KT 3000 BR OVC007 M00/M01 Q1015 R04/590395
NOSIG=

Extra information for LKMT:More info

Metar Taf Metar & Taf Last 4 Metars F.Rules Stats Wind Profile Meteogram Temp Stats Airport Information Weather charts Add Link Nearby VenuesMetar ALERT Operation Metar Decoded Social comments